sensor_id;sensor_type;location;lat;lon;timestamp;temperature;humidity
5924;DHT22;2987;50.884;14.818;2023-04-30T08:00:07;13.90;99.90
5924;DHT22;2987;50.884;14.818;2023-04-30T08:02:38;14.10;99.90
5924;DHT22;2987;50.884;14.818;2023-04-30T08:05:04;14.50;99.90
5924;DHT22;2987;50.884;14.818;2023-04-30T08:07:30;14.90;99.90
5924;DHT22;2987;50.884;14.818;2023-04-30T08:09:56;14.80;99.90
5924;DHT22;2987;50.884;14.818;2023-04-30T08:12:22;14.40;99.90
5924;DHT22;2987;50.884;14.818;2023-04-30T08:14:48;14.10;99.90
5924;DHT22;2987;50.884;14.818;2023-04-30T08:17:13;14.00;99.90
5924;DHT22;2987;50.884;14.818;2023-04-30T08:19:39;14.10;99.90
5924;DHT22;2987;50.884;14.818;2023-04-30T08:22:05;14.20;99.90
5924;DHT22;2987;50.884;14.818;2023-04-30T08:24:31;14.50;99.90
5924;DHT22;2987;50.884;14.818;2023-04-30T08:26:57;15.10;99.90
5924;DHT22;2987;50.884;14.818;2023-04-30T08:29:25;15.50;99.90
5924;DHT22;2987;50.884;14.818;2023-04-30T08:31:50;15.80;99.90
5924;DHT22;2987;50.884;14.818;2023-04-30T08:34:16;16.20;99.90
5924;DHT22;2987;50.884;14.818;2023-04-30T08:36:42;16.60;99.90
5924;DHT22;2987;50.884;14.818;2023-04-30T08:39:08;16.70;99.90
5924;DHT22;2987;50.884;14.818;2023-04-30T08:41:35;16.60;99.90
5924;DHT22;2987;50.884;14.818;2023-04-30T08:44:04;16.00;99.90
5924;DHT22;2987;50.884;14.818;2023-04-30T08:46:31;15.60;99.90
5924;DHT22;2987;50.884;14.818;2023-04-30T08:49:00;15.70;99.90
5924;DHT22;2987;50.884;14.818;2023-04-30T08:51:29;15.80;99.90
5924;DHT22;2987;50.884;14.818;2023-04-30T08:53:56;15.40;99.90
5924;DHT22;2987;50.884;14.818;2023-04-30T08:56:23;15.10;99.90
5924;DHT22;2987;50.884;14.818;2023-04-30T08:58:49;14.80;99.90
5924;DHT22;2987;50.884;14.818;2023-04-30T09:01:15;14.80;99.90
5924;DHT22;2987;50.884;14.818;2023-04-30T09:03:41;14.60;99.90
5924;DHT22;2987;50.884;14.818;2023-04-30T09:06:07;14.30;99.90
5924;DHT22;2987;50.884;14.818;2023-04-30T09:08:42;14.10;99.90
5924;DHT22;2987;50.884;14.818;2023-04-30T09:11:25;14.20;99.90
5924;DHT22;2987;50.884;14.818;2023-04-30T09:13:54;14.30;99.90
5924;DHT22;2987;50.884;14.818;2023-04-30T09:16:23;14.70;99.90
5924;DHT22;2987;50.884;14.818;2023-04-30T09:18:50;15.10;99.90
5924;DHT22;2987;50.884;14.818;2023-04-30T09:21:16;15.20;99.90
5924;DHT22;2987;50.884;14.818;2023-04-30T09:23:59;15.40;99.90
5924;DHT22;2987;50.884;14.818;2023-04-30T09:26:31;15.30;99.90
5924;DHT22;2987;50.884;14.818;2023-04-30T09:28:58;15.20;99.90
5924;DHT22;2987;50.884;14.818;2023-04-30T09:31:25;15.40;99.90
5924;DHT22;2987;50.884;14.818;2023-04-30T09:33:52;15.30;99.90
5924;DHT22;2987;50.884;14.818;2023-04-30T09:36:19;15.10;99.90
5924;DHT22;2987;50.884;14.818;2023-04-30T09:38:45;15.00;99.90
5924;DHT22;2987;50.884;14.818;2023-04-30T09:41:28;15.00;99.90
5924;DHT22;2987;50.884;14.818;2023-04-30T09:43:55;15.10;99.90
5924;DHT22;2987;50.884;14.818;2023-04-30T09:46:30;15.30;99.90
5924;DHT22;2987;50.884;14.818;2023-04-30T09:48:58;15.30;99.90
5924;DHT22;2987;50.884;14.818;2023-04-30T09:51:25;15.60;99.90
5924;DHT22;2987;50.884;14.818;2023-04-30T09:56:21;15.90;99.90
5924;DHT22;2987;50.884;14.818;2023-04-30T09:58:51;16.10;99.90
5924;DHT22;2987;50.884;14.818;2023-04-30T10:01:19;16.10;99.90
5924;DHT22;2987;50.884;14.818;2023-04-30T10:03:45;16.00;99.90
5924;DHT22;2987;50.884;14.818;2023-04-30T10:06:12;15.80;99.90
5924;DHT22;2987;50.884;14.818;2023-04-30T10:08:42;15.80;99.90
5924;DHT22;2987;50.884;14.818;2023-04-30T10:11:13;15.80;99.90
5924;DHT22;2987;50.884;14.818;2023-04-30T10:13:46;15.90;99.90
5924;DHT22;2987;50.884;14.818;2023-04-30T10:21:41;15.40;99.90
5924;DHT22;2987;50.884;14.818;2023-04-30T10:24:12;15.20;99.90
5924;DHT22;2987;50.884;14.818;2023-04-30T10:26:39;15.30;99.90
5924;DHT22;2987;50.884;14.818;2023-04-30T10:29:06;15.30;99.90
5924;DHT22;2987;50.884;14.818;2023-04-30T10:31:33;15.50;99.90
5924;DHT22;2987;50.884;14.818;2023-04-30T10:36:56;16.20;99.90
5924;DHT22;2987;50.884;14.818;2023-04-30T10:39:26;16.30;99.90
5924;DHT22;2987;50.884;14.818;2023-04-30T10:44:32;15.90;99.90
5924;DHT22;2987;50.884;14.818;2023-04-30T10:47:00;16.00;99.90
5924;DHT22;2987;50.884;14.818;2023-04-30T10:49:27;15.80;99.90
5924;DHT22;2987;50.884;14.818;2023-04-30T10:51:53;15.50;99.90
5924;DHT22;2987;50.884;14.818;2023-04-30T10:54:26;15.70;99.90
5924;DHT22;2987;50.884;14.818;2023-04-30T10:56:53;15.80;99.90
5924;DHT22;2987;50.884;14.818;2023-04-30T10:59:21;16.00;99.90
5924;DHT22;2987;50.884;14.818;2023-04-30T11:01:58;16.20;99.90
5924;DHT22;2987;50.884;14.818;2023-04-30T11:04:26;16.30;99.90
5924;DHT22;2987;50.884;14.818;2023-04-30T11:06:59;16.30;99.90
5924;DHT22;2987;50.884;14.818;2023-04-30T11:09:43;16.40;99.90
5924;DHT22;2987;50.884;14.818;2023-04-30T11:12:18;16.30;99.90
5924;DHT22;2987;50.884;14.818;2023-04-30T11:14:45;16.50;98.80
5924;DHT22;2987;50.884;14.818;2023-04-30T11:17:20;16.70;99.90
5924;DHT22;2987;50.884;14.818;2023-04-30T11:19:48;16.70;99.50
5924;DHT22;2987;50.884;14.818;2023-04-30T11:22:17;16.90;99.90
5924;DHT22;2987;50.884;14.818;2023-04-30T11:25:07;16.90;99.90
5924;DHT22;2987;50.884;14.818;2023-04-30T11:27:36;16.90;99.80
5924;DHT22;2987;50.884;14.818;2023-04-30T11:30:10;17.20;99.90
5924;DHT22;2987;50.884;14.818;2023-04-30T11:32:38;17.20;99.70
5924;DHT22;2987;50.884;14.818;2023-04-30T11:35:05;17.30;99.40
5924;DHT22;2987;50.884;14.818;2023-04-30T11:37:33;17.20;98.50
5924;DHT22;2987;50.884;14.818;2023-04-30T11:40:03;17.20;96.60
5924;DHT22;2987;50.884;14.818;2023-04-30T11:42:30;16.90;96.80
5924;DHT22;2987;50.884;14.818;2023-04-30T11:45:08;17.00;97.10
5924;DHT22;2987;50.884;14.818;2023-04-30T11:47:43;17.00;96.50
5924;DHT22;2987;50.884;14.818;2023-04-30T11:50:12;17.10;99.90
5924;DHT22;2987;50.884;14.818;2023-04-30T11:52:39;17.10;98.40
5924;DHT22;2987;50.884;14.818;2023-04-30T11:55:12;17.20;97.30
5924;DHT22;2987;50.884;14.818;2023-04-30T11:57:45;17.20;95.70
5924;DHT22;2987;50.884;14.818;2023-04-30T12:00:15;17.20;98.70
5924;DHT22;2987;50.884;14.818;2023-04-30T12:02:42;17.10;95.50
5924;DHT22;2987;50.884;14.818;2023-04-30T12:05:12;17.10;96.30
5924;DHT22;2987;50.884;14.818;2023-04-30T12:07:44;17.20;95.20
5924;DHT22;2987;50.884;14.818;2023-04-30T12:10:12;17.20;98.00
5924;DHT22;2987;50.884;14.818;2023-04-30T12:12:37;16.80;96.20
5924;DHT22;2987;50.884;14.818;2023-04-30T12:15:14;17.00;97.00
5924;DHT22;2987;50.884;14.818;2023-04-30T12:17:42;16.80;95.70
5924;DHT22;2987;50.884;14.818;2023-04-30T12:20:09;16.90;96.30
5924;DHT22;2987;50.884;14.818;2023-04-30T12:22:35;17.10;95.90
5924;DHT22;2987;50.884;14.818;2023-04-30T12:25:07;17.20;95.30
5924;DHT22;2987;50.884;14.818;2023-04-30T12:27:35;17.40;94.00
5924;DHT22;2987;50.884;14.818;2023-04-30T12:30:05;17.20;94.80
5924;DHT22;2987;50.884;14.818;2023-04-30T12:32:37;17.20;95.20
5924;DHT22;2987;50.884;14.818;2023-04-30T12:35:05;17.30;93.30
5924;DHT22;2987;50.884;14.818;2023-04-30T12:37:31;17.30;93.60
5924;DHT22;2987;50.884;14.818;2023-04-30T12:39:57;17.40;93.70
5924;DHT22;2987;50.884;14.818;2023-04-30T12:42:28;17.30;93.70
5924;DHT22;2987;50.884;14.818;2023-04-30T12:44:57;17.30;93.00
5924;DHT22;2987;50.884;14.818;2023-04-30T12:47:24;17.00;92.90
5924;DHT22;2987;50.884;14.818;2023-04-30T12:49:50;17.10;93.90
5924;DHT22;2987;50.884;14.818;2023-04-30T12:52:16;17.30;93.40
5924;DHT22;2987;50.884;14.818;2023-04-30T12:54:42;17.30;92.00
5924;DHT22;2987;50.884;14.818;2023-04-30T12:57:10;17.20;93.00
5924;DHT22;2987;50.884;14.818;2023-04-30T12:59:38;17.20;93.10
5924;DHT22;2987;50.884;14.818;2023-04-30T13:02:06;16.70;91.70
5924;DHT22;2987;50.884;14.818;2023-04-30T13:04:33;16.80;94.10
5924;DHT22;2987;50.884;14.818;2023-04-30T13:07:01;17.10;93.10
5924;DHT22;2987;50.884;14.818;2023-04-30T13:09:27;17.20;92.80
5924;DHT22;2987;50.884;14.818;2023-04-30T13:11:54;17.30;93.20
5924;DHT22;2987;50.884;14.818;2023-04-30T13:14:20;17.50;93.70
5924;DHT22;2987;50.884;14.818;2023-04-30T13:16:45;17.40;93.00
5924;DHT22;2987;50.884;14.818;2023-04-30T13:19:12;17.50;93.40
5924;DHT22;2987;50.884;14.818;2023-04-30T13:21:39;17.60;92.50
5924;DHT22;2987;50.884;14.818;2023-04-30T13:24:05;17.40;95.10
5924;DHT22;2987;50.884;14.818;2023-04-30T13:26:31;17.40;93.90
5924;DHT22;2987;50.884;14.818;2023-04-30T13:28:57;17.10;94.50
5924;DHT22;2987;50.884;14.818;2023-04-30T13:31:23;17.10;95.70
5924;DHT22;2987;50.884;14.818;2023-04-30T13:33:49;17.20;93.90
5924;DHT22;2987;50.884;14.818;2023-04-30T13:36:15;17.30;95.30
5924;DHT22;2987;50.884;14.818;2023-04-30T13:38:42;17.10;93.00
5924;DHT22;2987;50.884;14.818;2023-04-30T13:41:08;17.00;93.00
5924;DHT22;2987;50.884;14.818;2023-04-30T13:43:33;17.00;92.40
5924;DHT22;2987;50.884;14.818;2023-04-30T13:46:00;17.10;93.80
5924;DHT22;2987;50.884;14.818;2023-04-30T13:48:26;16.90;93.80
5924;DHT22;2987;50.884;14.818;2023-04-30T13:50:53;17.00;94.20
5924;DHT22;2987;50.884;14.818;2023-04-30T13:53:19;17.10;92.20
5924;DHT22;2987;50.884;14.818;2023-04-30T13:55:45;17.00;92.00
5924;DHT22;2987;50.884;14.818;2023-04-30T13:58:12;17.10;92.60
5924;DHT22;2987;50.884;14.818;2023-04-30T14:00:38;17.10;91.30
5924;DHT22;2987;50.884;14.818;2023-04-30T14:03:04;17.00;92.00
5924;DHT22;2987;50.884;14.818;2023-04-30T14:05:30;17.10;93.80
5924;DHT22;2987;50.884;14.818;2023-04-30T14:07:56;17.20;90.80
5924;DHT22;2987;50.884;14.818;2023-04-30T14:10:22;17.20;84.40
5924;DHT22;2987;50.884;14.818;2023-04-30T14:12:48;17.00;89.90
5924;DHT22;2987;50.884;14.818;2023-04-30T14:15:14;17.00;93.30
5924;DHT22;2987;50.884;14.818;2023-04-30T14:17:41;16.90;91.80
5924;DHT22;2987;50.884;14.818;2023-04-30T14:20:07;16.80;92.70
5924;DHT22;2987;50.884;14.818;2023-04-30T14:22:33;16.60;90.60
5924;DHT22;2987;50.884;14.818;2023-04-30T14:25:03;16.60;89.40
5924;DHT22;2987;50.884;14.818;2023-04-30T14:27:30;16.50;90.90
5924;DHT22;2987;50.884;14.818;2023-04-30T14:29:56;16.40;87.30
5924;DHT22;2987;50.884;14.818;2023-04-30T14:32:24;16.50;90.50
5924;DHT22;2987;50.884;14.818;2023-04-30T14:34:50;16.60;88.00
5924;DHT22;2987;50.884;14.818;2023-04-30T14:37:16;16.70;86.70
5924;DHT22;2987;50.884;14.818;2023-04-30T14:39:42;16.60;88.50
5924;DHT22;2987;50.884;14.818;2023-04-30T14:42:08;16.80;87.30
5924;DHT22;2987;50.884;14.818;2023-04-30T14:44:36;16.80;87.80
5924;DHT22;2987;50.884;14.818;2023-04-30T14:47:03;16.80;86.80
5924;DHT22;2987;50.884;14.818;2023-04-30T14:49:29;16.50;89.80
5924;DHT22;2987;50.884;14.818;2023-04-30T14:51:56;16.50;88.80
5924;DHT22;2987;50.884;14.818;2023-04-30T14:54:22;16.40;90.70
5924;DHT22;2987;50.884;14.818;2023-04-30T14:56:48;16.50;90.40
5924;DHT22;2987;50.884;14.818;2023-04-30T14:59:14;16.50;87.60
5924;DHT22;2987;50.884;14.818;2023-04-30T15:01:41;16.40;91.80
5924;DHT22;2987;50.884;14.818;2023-04-30T15:04:07;16.40;92.20
5924;DHT22;2987;50.884;14.818;2023-04-30T15:06:33;16.40;91.00
5924;DHT22;2987;50.884;14.818;2023-04-30T15:08:59;16.50;91.10
5924;DHT22;2987;50.884;14.818;2023-04-30T15:11:25;16.50;91.10
5924;DHT22;2987;50.884;14.818;2023-04-30T15:13:52;16.40;90.60
5924;DHT22;2987;50.884;14.818;2023-04-30T15:16:20;16.30;90.70
5924;DHT22;2987;50.884;14.818;2023-04-30T15:18:46;16.30;91.40
5924;DHT22;2987;50.884;14.818;2023-04-30T15:21:13;16.40;91.10
5924;DHT22;2987;50.884;14.818;2023-04-30T15:23:39;16.30;90.50
5924;DHT22;2987;50.884;14.818;2023-04-30T15:26:06;16.30;90.70
5924;DHT22;2987;50.884;14.818;2023-04-30T15:28:32;16.50;88.90
5924;DHT22;2987;50.884;14.818;2023-04-30T15:30:58;16.50;90.50
5924;DHT22;2987;50.884;14.818;2023-04-30T15:33:26;16.30;88.30
5924;DHT22;2987;50.884;14.818;2023-04-30T15:35:54;16.30;89.50
5924;DHT22;2987;50.884;14.818;2023-04-30T15:38:20;16.20;90.00
5924;DHT22;2987;50.884;14.818;2023-04-30T15:40:47;16.10;90.40
5924;DHT22;2987;50.884;14.818;2023-04-30T15:43:13;16.10;89.70
5924;DHT22;2987;50.884;14.818;2023-04-30T15:45:39;16.10;90.30
5924;DHT22;2987;50.884;14.818;2023-04-30T15:48:05;16.10;90.20
5924;DHT22;2987;50.884;14.818;2023-04-30T15:50:31;16.10;90.10
5924;DHT22;2987;50.884;14.818;2023-04-30T15:52:58;16.00;91.20
5924;DHT22;2987;50.884;14.818;2023-04-30T15:55:24;16.00;90.40
5924;DHT22;2987;50.884;14.818;2023-04-30T15:57:50;15.90;91.60
5924;DHT22;2987;50.884;14.818;2023-04-30T16:00:16;15.90;91.60
5924;DHT22;2987;50.884;14.818;2023-04-30T16:02:43;15.70;90.80
5924;DHT22;2987;50.884;14.818;2023-04-30T16:05:09;15.60;91.90
5924;DHT22;2987;50.884;14.818;2023-04-30T16:07:35;15.70;91.40
5924;DHT22;2987;50.884;14.818;2023-04-30T16:10:02;15.60;91.70
5924;DHT22;2987;50.884;14.818;2023-04-30T16:12:29;15.50;90.80
5924;DHT22;2987;50.884;14.818;2023-04-30T16:14:55;15.40;91.20
5924;DHT22;2987;50.884;14.818;2023-04-30T16:17:21;15.30;91.90
5924;DHT22;2987;50.884;14.818;2023-04-30T16:19:48;15.30;91.20
5924;DHT22;2987;50.884;14.818;2023-04-30T16:22:15;15.20;91.40
5924;DHT22;2987;50.884;14.818;2023-04-30T16:24:41;15.20;92.10
5924;DHT22;2987;50.884;14.818;2023-04-30T16:27:07;15.10;91.50
5924;DHT22;2987;50.884;14.818;2023-04-30T16:29:33;15.00;92.30
5924;DHT22;2987;50.884;14.818;2023-04-30T16:31:59;14.80;92.00
5924;DHT22;2987;50.884;14.818;2023-04-30T16:34:25;14.70;93.00
5924;DHT22;2987;50.884;14.818;2023-04-30T16:36:51;14.60;93.20
5924;DHT22;2987;50.884;14.818;2023-04-30T16:39:17;14.60;93.10
5924;DHT22;2987;50.884;14.818;2023-04-30T16:41:42;14.60;92.90
5924;DHT22;2987;50.884;14.818;2023-04-30T16:44:09;14.60;93.00
5924;DHT22;2987;50.884;14.818;2023-04-30T16:46:35;14.50;93.60
5924;DHT22;2987;50.884;14.818;2023-04-30T16:49:01;14.40;93.00
5924;DHT22;2987;50.884;14.818;2023-04-30T16:51:27;14.40;93.00
5924;DHT22;2987;50.884;14.818;2023-04-30T16:53:53;14.30;93.20
5924;DHT22;2987;50.884;14.818;2023-04-30T16:56:19;14.30;93.90
5924;DHT22;2987;50.884;14.818;2023-04-30T16:58:46;14.20;93.50
5924;DHT22;2987;50.884;14.818;2023-04-30T17:01:12;14.20;93.40
5924;DHT22;2987;50.884;14.818;2023-04-30T17:03:37;14.10;94.00
5924;DHT22;2987;50.884;14.818;2023-04-30T17:06:03;14.10;93.70
5924;DHT22;2987;50.884;14.818;2023-04-30T17:08:30;14.10;93.70
5924;DHT22;2987;50.884;14.818;2023-04-30T17:10:56;14.10;93.60
5924;DHT22;2987;50.884;14.818;2023-04-30T17:13:22;14.10;93.50
5924;DHT22;2987;50.884;14.818;2023-04-30T17:15:48;14.00;93.30
5924;DHT22;2987;50.884;14.818;2023-04-30T17:18:14;14.00;93.30
5924;DHT22;2987;50.884;14.818;2023-04-30T17:20:40;14.00;92.50
5924;DHT22;2987;50.884;14.818;2023-04-30T17:23:06;13.90;92.70
5924;DHT22;2987;50.884;14.818;2023-04-30T17:25:32;13.80;92.20
5924;DHT22;2987;50.884;14.818;2023-04-30T17:27:58;13.70;92.90
5924;DHT22;2987;50.884;14.818;2023-04-30T17:30:26;13.70;93.40
5924;DHT22;2987;50.884;14.818;2023-04-30T17:32:52;13.60;93.60
5924;DHT22;2987;50.884;14.818;2023-04-30T17:35:19;13.50;93.10
5924;DHT22;2987;50.884;14.818;2023-04-30T17:37:45;13.40;93.90
5924;DHT22;2987;50.884;14.818;2023-04-30T17:40:12;13.40;93.80
5924;DHT22;2987;50.884;14.818;2023-04-30T17:42:37;13.30;94.10
5924;DHT22;2987;50.884;14.818;2023-04-30T17:45:04;13.30;94.10
5924;DHT22;2987;50.884;14.818;2023-04-30T17:47:30;13.20;94.00
5924;DHT22;2987;50.884;14.818;2023-04-30T17:49:57;13.10;94.40
5924;DHT22;2987;50.884;14.818;2023-04-30T17:52:23;13.10;95.00
5924;DHT22;2987;50.884;14.818;2023-04-30T17:54:50;12.90;95.10
5924;DHT22;2987;50.884;14.818;2023-04-30T17:57:17;12.80;95.30
5924;DHT22;2987;50.884;14.818;2023-04-30T17:59:42;12.70;95.40
5924;DHT22;2987;50.884;14.818;2023-04-30T18:02:08;12.60;95.70
5924;DHT22;2987;50.884;14.818;2023-04-30T18:04:34;12.50;96.10
5924;DHT22;2987;50.884;14.818;2023-04-30T18:07:00;12.40;96.70
5924;DHT22;2987;50.884;14.818;2023-04-30T18:09:26;12.30;97.70
5924;DHT22;2987;50.884;14.818;2023-04-30T18:11:52;12.20;97.80
5924;DHT22;2987;50.884;14.818;2023-04-30T18:14:18;12.10;98.50
5924;DHT22;2987;50.884;14.818;2023-04-30T18:16:44;12.00;98.80
5924;DHT22;2987;50.884;14.818;2023-04-30T18:19:10;11.90;98.10
5924;DHT22;2987;50.884;14.818;2023-04-30T18:21:36;11.80;98.90
5924;DHT22;2987;50.884;14.818;2023-04-30T18:24:02;11.70;99.20
5924;DHT22;2987;50.884;14.818;2023-04-30T18:26:28;11.60;99.90
5924;DHT22;2987;50.884;14.818;2023-04-30T18:28:54;11.50;99.90
5924;DHT22;2987;50.884;14.818;2023-04-30T18:31:20;11.40;99.90
5924;DHT22;2987;50.884;14.818;2023-04-30T18:33:46;11.30;99.90
5924;DHT22;2987;50.884;14.818;2023-04-30T18:36:12;11.20;99.90
5924;DHT22;2987;50.884;14.818;2023-04-30T18:38:38;11.10;99.90
5924;DHT22;2987;50.884;14.818;2023-04-30T18:41:04;11.00;99.90
5924;DHT22;2987;50.884;14.818;2023-04-30T18:43:31;10.80;99.90
5924;DHT22;2987;50.884;14.818;2023-04-30T18:45:58;10.70;99.90
5924;DHT22;2987;50.884;14.818;2023-04-30T18:48:23;10.60;99.90
5924;DHT22;2987;50.884;14.818;2023-04-30T18:50:49;10.50;99.90
5924;DHT22;2987;50.884;14.818;2023-04-30T18:53:16;10.40;99.90
5924;DHT22;2987;50.884;14.818;2023-04-30T18:55:44;10.20;99.90
5924;DHT22;2987;50.884;14.818;2023-04-30T18:58:10;10.10;99.90
5924;DHT22;2987;50.884;14.818;2023-04-30T19:00:36;10.00;99.90
5924;DHT22;2987;50.884;14.818;2023-04-30T19:03:01;9.70;99.90
5924;DHT22;2987;50.884;14.818;2023-04-30T19:05:27;9.60;99.90
5924;DHT22;2987;50.884;14.818;2023-04-30T19:10:19;9.30;99.90
5924;DHT22;2987;50.884;14.818;2023-04-30T19:12:45;9.10;99.90
5924;DHT22;2987;50.884;14.818;2023-04-30T19:15:11;8.90;99.90
5924;DHT22;2987;50.884;14.818;2023-04-30T19:17:40;8.80;99.90
5924;DHT22;2987;50.884;14.818;2023-04-30T19:20:07;8.90;99.90
5924;DHT22;2987;50.884;14.818;2023-04-30T19:22:33;8.90;99.90
5924;DHT22;2987;50.884;14.818;2023-04-30T19:27:27;8.50;99.90
5924;DHT22;2987;50.884;14.818;2023-04-30T19:29:53;8.40;99.90
5924;DHT22;2987;50.884;14.818;2023-04-30T19:32:19;8.10;99.90
5924;DHT22;2987;50.884;14.818;2023-04-30T19:34:45;8.20;99.90
5924;DHT22;2987;50.884;14.818;2023-04-30T19:37:12;7.80;99.90
5924;DHT22;2987;50.884;14.818;2023-04-30T19:39:38;7.60;99.90
5924;DHT22;2987;50.884;14.818;2023-04-30T19:42:07;7.60;99.90
5924;DHT22;2987;50.884;14.818;2023-04-30T19:46:58;7.30;99.90
5924;DHT22;2987;50.884;14.818;2023-04-30T19:49:25;7.30;99.90
5924;DHT22;2987;50.884;14.818;2023-04-30T19:51:51;7.50;99.90
5924;DHT22;2987;50.884;14.818;2023-04-30T19:54:17;7.30;99.90
5924;DHT22;2987;50.884;14.818;2023-04-30T19:56:43;7.30;99.90
5924;DHT22;2987;50.884;14.818;2023-04-30T19:59:10;7.10;99.90
5924;DHT22;2987;50.884;14.818;2023-04-30T20:01:36;7.00;99.90
5924;DHT22;2987;50.884;14.818;2023-04-30T20:04:03;7.10;99.90
5924;DHT22;2987;50.884;14.818;2023-04-30T20:06:29;7.00;99.90
5924;DHT22;2987;50.884;14.818;2023-04-30T20:08:57;6.80;99.90
5924;DHT22;2987;50.884;14.818;2023-04-30T20:11:24;6.70;99.90
5924;DHT22;2987;50.884;14.818;2023-04-30T20:13:50;6.80;99.90
5924;DHT22;2987;50.884;14.818;2023-04-30T20:16:16;6.60;99.90
5924;DHT22;2987;50.884;14.818;2023-04-30T20:18:44;6.90;99.90
5924;DHT22;2987;50.884;14.818;2023-04-30T20:21:10;6.40;99.90
5924;DHT22;2987;50.884;14.818;2023-04-30T20:23:36;6.40;99.90
5924;DHT22;2987;50.884;14.818;2023-04-30T20:26:07;6.40;99.90
5924;DHT22;2987;50.884;14.818;2023-04-30T20:28:33;6.50;99.90
5924;DHT22;2987;50.884;14.818;2023-04-30T20:30:59;6.00;99.90
5924;DHT22;2987;50.884;14.818;2023-04-30T20:33:26;6.20;99.90
5924;DHT22;2987;50.884;14.818;2023-04-30T20:35:54;6.00;99.90
5924;DHT22;2987;50.884;14.818;2023-04-30T20:38:22;6.00;99.90
5924;DHT22;2987;50.884;14.818;2023-04-30T20:40:48;6.10;99.90
5924;DHT22;2987;50.884;14.818;2023-04-30T20:43:15;6.20;99.90
5924;DHT22;2987;50.884;14.818;2023-04-30T20:45:44;6.10;99.90
5924;DHT22;2987;50.884;14.818;2023-04-30T20:48:11;5.90;99.90
5924;DHT22;2987;50.884;14.818;2023-04-30T20:50:37;5.70;99.90
5924;DHT22;2987;50.884;14.818;2023-04-30T20:53:03;5.80;99.90
5924;DHT22;2987;50.884;14.818;2023-04-30T20:55:29;5.90;99.90
5924;DHT22;2987;50.884;14.818;2023-04-30T20:57:55;5.80;99.90
5924;DHT22;2987;50.884;14.818;2023-04-30T21:00:20;5.80;99.90
5924;DHT22;2987;50.884;14.818;2023-04-30T21:02:46;5.70;99.90
5924;DHT22;2987;50.884;14.818;2023-04-30T21:05:13;5.50;99.90
5924;DHT22;2987;50.884;14.818;2023-04-30T21:07:39;5.50;99.90
5924;DHT22;2987;50.884;14.818;2023-04-30T21:10:05;5.40;99.90
5924;DHT22;2987;50.884;14.818;2023-04-30T21:12:33;5.30;99.90
5924;DHT22;2987;50.884;14.818;2023-04-30T21:14:59;5.40;99.90
5924;DHT22;2987;50.884;14.818;2023-04-30T21:17:26;5.40;99.90
5924;DHT22;2987;50.884;14.818;2023-04-30T21:19:51;5.40;99.90
5924;DHT22;2987;50.884;14.818;2023-04-30T21:22:17;5.20;99.90
5924;DHT22;2987;50.884;14.818;2023-04-30T21:24:43;5.20;99.90
5924;DHT22;2987;50.884;14.818;2023-04-30T21:27:09;5.20;99.90
5924;DHT22;2987;50.884;14.818;2023-04-30T21:29:36;5.20;99.90
5924;DHT22;2987;50.884;14.818;2023-04-30T21:32:02;5.20;99.90
5924;DHT22;2987;50.884;14.818;2023-04-30T21:34:30;5.20;99.90
5924;DHT22;2987;50.884;14.818;2023-04-30T21:36:56;5.00;99.90
5924;DHT22;2987;50.884;14.818;2023-04-30T21:39:22;4.90;99.90
5924;DHT22;2987;50.884;14.818;2023-04-30T21:41:48;4.90;99.90
5924;DHT22;2987;50.884;14.818;2023-04-30T21:44:14;4.70;99.90
5924;DHT22;2987;50.884;14.818;2023-04-30T21:46:40;4.80;99.90
5924;DHT22;2987;50.884;14.818;2023-04-30T21:49:06;4.70;99.90
5924;DHT22;2987;50.884;14.818;2023-04-30T21:51:32;4.80;99.90
5924;DHT22;2987;50.884;14.818;2023-04-30T21:53:58;4.80;99.90
5924;DHT22;2987;50.884;14.818;2023-04-30T21:56:23;4.70;99.90
5924;DHT22;2987;50.884;14.818;2023-04-30T21:58:50;4.80;99.90
5924;DHT22;2987;50.884;14.818;2023-04-30T22:01:15;4.30;99.90
5924;DHT22;2987;50.884;14.818;2023-04-30T22:03:42;4.30;99.90
5924;DHT22;2987;50.884;14.818;2023-04-30T22:06:09;4.60;99.90
5924;DHT22;2987;50.884;14.818;2023-04-30T22:08:34;4.30;99.90
5924;DHT22;2987;50.884;14.818;2023-04-30T22:11:00;4.30;99.90
5924;DHT22;2987;50.884;14.818;2023-04-30T22:13:27;4.50;99.90
5924;DHT22;2987;50.884;14.818;2023-04-30T22:15:54;4.10;99.90
5924;DHT22;2987;50.884;14.818;2023-04-30T22:18:21;4.30;99.90
5924;DHT22;2987;50.884;14.818;2023-04-30T22:23:16;4.10;99.90
5924;DHT22;2987;50.884;14.818;2023-04-30T22:25:42;4.10;99.90
5924;DHT22;2987;50.884;14.818;2023-04-30T22:28:08;4.00;99.90
5924;DHT22;2987;50.884;14.818;2023-04-30T22:30:35;4.00;99.90
5924;DHT22;2987;50.884;14.818;2023-04-30T22:33:01;4.00;99.90
5924;DHT22;2987;50.884;14.818;2023-04-30T22:35:27;4.10;99.90
5924;DHT22;2987;50.884;14.818;2023-04-30T22:37:53;4.00;99.90
5924;DHT22;2987;50.884;14.818;2023-04-30T22:40:20;4.00;99.90
5924;DHT22;2987;50.884;14.818;2023-04-30T22:42:47;4.00;99.90
5924;DHT22;2987;50.884;14.818;2023-04-30T22:45:13;3.70;99.90
5924;DHT22;2987;50.884;14.818;2023-04-30T22:47:39;3.70;99.90
5924;DHT22;2987;50.884;14.818;2023-04-30T22:50:06;3.70;99.90
5924;DHT22;2987;50.884;14.818;2023-04-30T22:52:33;3.90;99.90
5924;DHT22;2987;50.884;14.818;2023-04-30T22:55:01;3.70;99.90
5924;DHT22;2987;50.884;14.818;2023-04-30T22:57:27;3.80;99.90
5924;DHT22;2987;50.884;14.818;2023-04-30T22:59:53;3.80;99.90
5924;DHT22;2987;50.884;14.818;2023-04-30T23:02:19;3.80;99.90
5924;DHT22;2987;50.884;14.818;2023-04-30T23:04:45;3.80;99.90
5924;DHT22;2987;50.884;14.818;2023-04-30T23:07:11;3.70;99.90
5924;DHT22;2987;50.884;14.818;2023-04-30T23:09:38;3.70;99.90
5924;DHT22;2987;50.884;14.818;2023-04-30T23:12:04;3.70;99.90
5924;DHT22;2987;50.884;14.818;2023-04-30T23:14:30;3.70;99.90
5924;DHT22;2987;50.884;14.818;2023-04-30T23:16:56;3.50;99.90
5924;DHT22;2987;50.884;14.818;2023-04-30T23:19:22;3.50;99.90
5924;DHT22;2987;50.884;14.818;2023-04-30T23:21:47;3.70;99.90
5924;DHT22;2987;50.884;14.818;2023-04-30T23:24:13;3.50;99.90
5924;DHT22;2987;50.884;14.818;2023-04-30T23:26:39;3.70;99.90
5924;DHT22;2987;50.884;14.818;2023-04-30T23:29:06;3.50;99.90
5924;DHT22;2987;50.884;14.818;2023-04-30T23:31:32;3.50;99.90
5924;DHT22;2987;50.884;14.818;2023-04-30T23:33:58;3.20;99.90
5924;DHT22;2987;50.884;14.818;2023-04-30T23:36:23;3.60;99.90
5924;DHT22;2987;50.884;14.818;2023-04-30T23:38:49;3.50;99.90
5924;DHT22;2987;50.884;14.818;2023-04-30T23:41:15;3.60;99.90
5924;DHT22;2987;50.884;14.818;2023-04-30T23:43:41;3.20;99.90
5924;DHT22;2987;50.884;14.818;2023-04-30T23:46:07;3.20;99.90
5924;DHT22;2987;50.884;14.818;2023-04-30T23:48:33;3.20;99.90
5924;DHT22;2987;50.884;14.818;2023-04-30T23:51:01;3.20;99.90
5924;DHT22;2987;50.884;14.818;2023-04-30T23:53:28;3.40;99.90
5924;DHT22;2987;50.884;14.818;2023-04-30T23:55:55;3.40;99.90
5924;DHT22;2987;50.884;14.818;2023-04-30T23:58:23;3.00;99.90
